Weather at Leh Kushok Bakula Rimpochee Airport

Public forecast

Using degrees Celsius for public forecast. Weather courtesy of forecast.io.

Current aviation weather report (METAR) for Leh Kushok Bakula Rimpochee Airport

Report is more than 6 hours old.

2024/06/14 21:00 (retrieved 20 hours ago)

VILH 142100Z 32010KT 6000 FEW070 SCT150 14/M03 Q1023 NOSIG

Aviation forecast (TAF) for Leh Kushok Bakula Rimpochee Airport

Forecast is more than 6 hours old.

2024/06/15 06:00 (retrieved 11 hours ago)

TAF VILH 150330Z 1506/1518 28008KT 6000 SCT060 SCT120 TEMPO 1510/1514 29015G25KT BECMG 1515/1518 FEW070 SCT120